createdAt,value
2022-08-26T00:00:16.524Z,15.8
2022-08-26T00:05:21.573Z,15.7
2022-08-26T00:10:27.651Z,15.6
2022-08-26T00:15:17.071Z,15.6
2022-08-26T00:20:22.805Z,15.6
2022-08-26T00:25:28.452Z,15.5
2022-08-26T00:30:17.526Z,15.4
2022-08-26T00:35:23.612Z,15.3
2022-08-26T00:40:29.695Z,15.2
2022-08-26T00:45:18.685Z,15.2
2022-08-26T00:50:24.760Z,15.2
2022-08-26T00:55:37.742Z,15.2
2022-08-26T01:00:19.838Z,15.1
2022-08-26T01:05:26.041Z,15.1
2022-08-26T01:10:32.108Z,15.1
2022-08-26T01:15:21.078Z,15.1
2022-08-26T01:20:27.213Z,15.0
2022-08-26T01:25:15.891Z,15.0
2022-08-26T01:30:21.980Z,15.0
2022-08-26T01:35:28.035Z,14.9
2022-08-26T01:40:17.180Z,14.9
2022-08-26T01:45:23.127Z,14.9
2022-08-26T01:50:30.346Z,14.8
2022-08-26T01:55:32.029Z,14.8
2022-08-26T02:00:24.356Z,14.7
2022-08-26T02:05:29.501Z,14.7
2022-08-26T02:10:18.481Z,14.5
2022-08-26T02:15:24.547Z,14.5
2022-08-26T02:20:30.670Z,14.6
2022-08-26T02:25:19.647Z,14.4
2022-08-26T02:30:26.013Z,14.3
2022-08-26T02:35:31.804Z,14.2
2022-08-26T02:40:20.965Z,14.1
2022-08-26T02:45:26.902Z,14.1
2022-08-26T02:50:15.926Z,14.3
2022-08-26T02:55:22.060Z,14.2
2022-08-26T03:00:28.307Z,14.0
2022-08-26T03:05:17.224Z,13.9
2022-08-26T03:10:23.318Z,13.9
2022-08-26T03:15:29.344Z,13.9
2022-08-26T03:20:18.409Z,13.8
2022-08-26T03:25:24.777Z,13.8
2022-08-26T03:30:30.410Z,13.8
2022-08-26T03:35:19.431Z,13.8
2022-08-26T03:40:25.572Z,13.7
2022-08-26T03:45:31.542Z,13.7
2022-08-26T03:50:22.595Z,13.8
2022-08-26T03:55:26.612Z,13.8
2022-08-26T04:00:32.992Z,13.8
2022-08-26T04:05:20.861Z,13.7
2022-08-26T04:10:28.460Z,13.7
2022-08-26T04:15:16.027Z,13.7
2022-08-26T04:20:22.042Z,13.8
2022-08-26T04:25:27.758Z,13.7
2022-08-26T04:30:16.850Z,13.6
2022-08-26T04:35:25.769Z,13.6
2022-08-26T04:40:28.947Z,13.7
2022-08-26T04:45:17.949Z,13.7
2022-08-26T04:50:24.073Z,13.6
2022-08-26T04:55:38.470Z,13.6
2022-08-26T05:00:19.128Z,13.6
2022-08-26T05:05:25.403Z,13.7
2022-08-26T05:10:31.336Z,14.0
2022-08-26T05:15:20.343Z,14.1
2022-08-26T05:20:26.453Z,14.3
2022-08-26T05:25:32.156Z,14.4
2022-08-26T05:30:21.215Z,14.4
2022-08-26T05:35:27.256Z,14.6
2022-08-26T05:40:16.387Z,15.1
2022-08-26T05:45:22.359Z,15.9
2022-08-26T05:50:28.526Z,16.1
2022-08-26T05:55:17.502Z,16.5
2022-08-26T06:00:23.633Z,16.9
2022-08-26T06:05:29.177Z,17.0
2022-08-26T06:10:33.610Z,17.4
2022-08-26T06:12:00.227Z,17.3
2022-08-26T06:15:24.132Z,17.7
2022-08-26T06:20:30.182Z,17.8
2022-08-26T06:21:25.209Z,17.7
2022-08-26T06:25:18.730Z,18.3
2022-08-26T06:30:24.918Z,18.6
2022-08-26T06:35:31.360Z,18.9
2022-08-26T06:40:20.231Z,18.9
2022-08-26T06:45:25.931Z,19.1
2022-08-26T06:50:32.015Z,19.4
2022-08-26T06:55:21.011Z,19.2
2022-08-26T07:00:27.104Z,19.5
2022-08-26T07:05:16.246Z,19.4
2022-08-26T07:10:22.479Z,19.9
2022-08-26T07:15:31.399Z,20.3
2022-08-26T07:20:17.398Z,20.5
2022-08-26T07:25:23.185Z,21.2
2022-08-26T07:30:29.207Z,21.3
2022-08-26T07:35:18.316Z,21.6
2022-08-26T07:40:24.406Z,22.0
2022-08-26T07:45:30.379Z,21.9
2022-08-26T07:50:19.420Z,22.2
2022-08-26T07:55:25.518Z,22.4
2022-08-26T08:00:31.575Z,22.1
2022-08-26T08:05:19.725Z,22.2
2022-08-26T08:10:25.953Z,22.4
2022-08-26T08:15:31.798Z,23.1
2022-08-26T08:20:21.003Z,23.0
2022-08-26T08:25:26.815Z,23.3
2022-08-26T08:30:20.807Z,23.6
2022-08-26T08:35:21.951Z,24.2
2022-08-26T08:40:28.081Z,24.3
2022-08-26T08:45:17.081Z,24.5
2022-08-26T08:50:23.121Z,24.6
2022-08-26T08:55:29.173Z,24.4
2022-08-26T09:00:18.254Z,24.8
2022-08-26T09:05:24.407Z,25.3
2022-08-26T09:10:30.410Z,24.4
2022-08-26T09:15:19.400Z,24.7
2022-08-26T09:20:25.576Z,25.5
2022-08-26T09:25:31.421Z,25.6
2022-08-26T09:30:20.474Z,25.6
2022-08-26T09:35:26.535Z,25.7
2022-08-26T09:40:15.709Z,25.7
2022-08-26T09:45:21.648Z,25.9
2022-08-26T09:50:28.888Z,26.2
2022-08-26T09:55:16.806Z,25.8
2022-08-26T10:00:22.930Z,25.6
2022-08-26T10:05:29.840Z,25.3
2022-08-26T10:10:18.561Z,25.7
2022-08-26T10:15:24.793Z,25.9
2022-08-26T10:20:30.725Z,25.7
2022-08-26T10:25:19.716Z,25.2
2022-08-26T10:30:25.799Z,25.8
2022-08-26T10:40:20.986Z,23.4
2022-08-26T10:45:26.938Z,23.3
2022-08-26T10:50:17.974Z,22.9
2022-08-26T10:55:22.071Z,22.8
2022-08-26T11:00:28.118Z,22.6
2022-08-26T11:05:17.306Z,22.6
2022-08-26T11:10:23.378Z,22.7
2022-08-26T11:15:29.582Z,22.8
2022-08-26T11:20:18.466Z,22.7
2022-08-26T11:25:29.131Z,22.9
2022-08-26T11:30:30.172Z,23.1
2022-08-26T11:35:19.202Z,23.1
2022-08-26T11:40:25.349Z,23.8
2022-08-26T11:45:31.377Z,24.2
2022-08-26T11:50:20.377Z,24.8
2022-08-26T11:55:26.425Z,24.9
2022-08-26T12:00:33.785Z,25.2
2022-08-26T12:05:20.596Z,25.3
2022-08-26T12:10:29.399Z,25.3
2022-08-26T12:15:15.723Z,25.3
2022-08-26T12:20:21.834Z,25.3
2022-08-26T12:25:27.755Z,25.2
2022-08-26T12:30:18.041Z,25.4
2022-08-26T12:35:22.909Z,25.6
2022-08-26T12:40:29.051Z,25.2
2022-08-26T12:45:17.960Z,25.0
2022-08-26T12:50:24.031Z,24.8
2022-08-26T12:55:30.092Z,24.7
2022-08-26T13:00:19.147Z,24.6
2022-08-26T13:05:25.284Z,24.6
2022-08-26T13:10:31.610Z,24.5
2022-08-26T13:15:20.367Z,24.3
2022-08-26T13:20:26.476Z,24.1
2022-08-26T13:25:32.305Z,24.1
2022-08-26T13:30:22.247Z,24.1
2022-08-26T13:35:27.399Z,24.1
2022-08-26T13:40:16.632Z,24.1
2022-08-26T13:45:22.485Z,24.0
2022-08-26T13:50:28.588Z,23.9
2022-08-26T13:55:17.600Z,24.0
2022-08-26T14:00:23.846Z,24.0
2022-08-26T14:05:29.142Z,23.9
2022-08-26T14:10:18.162Z,24.1
2022-08-26T14:15:24.233Z,24.1
2022-08-26T14:20:30.443Z,24.2
2022-08-26T14:25:18.894Z,24.1
2022-08-26T14:30:24.981Z,24.0
2022-08-26T14:35:31.041Z,23.7
2022-08-26T14:40:20.230Z,23.7
2022-08-26T14:45:26.132Z,23.6
2022-08-26T14:50:32.216Z,23.6
2022-08-26T14:55:21.246Z,23.5
2022-08-26T15:00:27.317Z,23.6
2022-08-26T15:05:15.436Z,23.4
2022-08-26T15:10:21.505Z,23.4
2022-08-26T15:15:27.537Z,23.3
2022-08-26T15:20:16.619Z,23.1
2022-08-26T15:25:23.387Z,23.0
2022-08-26T15:30:29.391Z,22.9
2022-08-26T15:35:18.457Z,22.9
2022-08-26T15:40:24.622Z,22.9
2022-08-26T15:45:30.575Z,22.9
2022-08-26T15:50:19.639Z,22.8
2022-08-26T15:55:25.732Z,23.0
2022-08-26T16:00:31.756Z,23.0
2022-08-26T16:05:19.897Z,22.8
2022-08-26T16:10:25.898Z,22.8
2022-08-26T16:15:32.022Z,22.7
2022-08-26T16:20:20.978Z,22.5
2022-08-26T16:25:27.146Z,22.4
2022-08-26T16:30:16.148Z,22.4
2022-08-26T16:35:22.207Z,22.4
2022-08-26T16:40:28.895Z,22.3
2022-08-26T16:45:17.305Z,22.3
2022-08-26T16:50:23.392Z,22.2
2022-08-26T16:55:29.458Z,22.1
2022-08-26T17:00:18.503Z,21.9
2022-08-26T17:05:23.649Z,21.6
2022-08-26T17:10:29.727Z,21.5
2022-08-26T17:15:19.019Z,21.3
2022-08-26T17:20:24.773Z,21.3
2022-08-26T17:25:30.653Z,21.3
2022-08-26T17:30:19.539Z,21.3
2022-08-26T17:35:25.622Z,21.2
2022-08-26T17:40:31.858Z,21.3
2022-08-26T17:45:25.862Z,21.3
2022-08-26T17:50:26.783Z,21.1
2022-08-26T17:55:15.834Z,21.0
2022-08-26T18:00:21.899Z,20.8
2022-08-26T18:05:28.260Z,20.7
2022-08-26T18:10:17.276Z,20.7
2022-08-26T18:15:23.741Z,20.8
2022-08-26T18:20:29.394Z,20.8
2022-08-26T18:25:18.175Z,20.8
2022-08-26T18:30:24.377Z,20.9
2022-08-26T18:35:30.297Z,20.9
2022-08-26T18:40:22.244Z,20.9
2022-08-26T18:45:25.393Z,20.9
2022-08-26T18:50:31.434Z,20.9
2022-08-26T18:55:20.481Z,20.8
2022-08-26T19:00:26.531Z,20.7
2022-08-26T19:05:31.679Z,20.7
2022-08-26T19:10:20.726Z,20.6
2022-08-26T19:15:27.087Z,20.5
2022-08-26T19:20:15.874Z,20.4
2022-08-26T19:25:21.639Z,20.4
2022-08-26T19:30:28.001Z,20.3
2022-08-26T19:35:16.728Z,20.2
2022-08-26T19:40:22.837Z,20.1
2022-08-26T19:45:28.897Z,20.1
2022-08-26T19:50:17.917Z,20.0
2022-08-26T19:55:23.970Z,19.9
2022-08-26T20:00:30.011Z,19.5
2022-08-26T20:05:19.143Z,19.3
2022-08-26T20:10:25.208Z,19.1
2022-08-26T20:15:31.425Z,19.2
2022-08-26T20:20:29.717Z,19.2
2022-08-26T20:25:26.044Z,18.8
2022-08-26T20:30:32.426Z,18.6
2022-08-26T20:35:21.153Z,18.4
2022-08-26T20:40:27.362Z,18.3
2022-08-26T20:45:16.253Z,18.3
2022-08-26T20:50:22.329Z,18.3
2022-08-26T20:55:28.389Z,18.2
2022-08-26T21:00:17.476Z,18.2
2022-08-26T21:05:22.580Z,18.2
2022-08-26T21:10:28.630Z,18.2
2022-08-26T21:15:17.671Z,18.2
2022-08-26T21:20:23.738Z,18.2
2022-08-26T21:25:30.384Z,18.3
2022-08-26T21:30:19.398Z,18.5
2022-08-26T21:35:25.676Z,18.5
2022-08-26T21:40:31.645Z,18.2
2022-08-26T21:45:20.596Z,18.1
2022-08-26T21:50:26.669Z,18.0
2022-08-26T21:55:32.760Z,18.0
2022-08-26T22:00:21.789Z,17.9
2022-08-26T22:05:27.065Z,17.8
2022-08-26T22:10:16.027Z,17.7
2022-08-26T22:15:22.082Z,17.7
2022-08-26T22:20:28.292Z,17.7
2022-08-26T22:25:16.925Z,17.7
2022-08-26T22:30:23.007Z,17.6
2022-08-26T22:35:29.750Z,17.5
2022-08-26T22:40:18.122Z,17.4
2022-08-26T22:45:24.165Z,17.4
2022-08-26T22:50:30.253Z,17.3
2022-08-26T22:55:19.242Z,17.3
2022-08-26T23:00:31.971Z,17.2
2022-08-26T23:05:30.545Z,17.2
2022-08-26T23:10:19.562Z,17.1
2022-08-26T23:15:25.645Z,17.1
2022-08-26T23:20:32.017Z,17.1
2022-08-26T23:25:21.353Z,17.1
2022-08-26T23:30:27.424Z,17.1
2022-08-26T23:35:17.395Z,17.1
2022-08-26T23:40:22.747Z,17.0
2022-08-26T23:45:28.638Z,16.9
2022-08-26T23:50:17.603Z,16.9
2022-08-26T23:55:23.714Z,16.8
